Time;durP1;ratioP1;P1;durP2;ratioP2;P2;SDS_P1;SDS_P2;PMS_P1;PMS_P2;Temp;Humidity;BMP_temperature;BMP_pressure;BME280_temperature;BME280_humidity;BME280_pressure;Samples;Min_cycle;Max_cycle;Signal;HPM_P1;HPM_P2
2022/02/23 00:00:46;;;;;;;2.00;0.90;;;7.50;99.90;;;;;;4997520;28;20667;-67
2022/02/23 00:03:12;;;;;;;1.47;0.70;;;7.50;99.90;;;;;;5003700;28;20438;-67
2022/02/23 00:05:38;;;;;;;2.00;1.00;;;7.50;99.90;;;;;;4994344;28;20675;-67
2022/02/23 00:08:04;;;;;;;1.60;0.93;;;7.50;99.90;;;;;;4982846;28;20229;-66
2022/02/23 00:10:30;;;;;;;2.93;1.03;;;7.50;99.90;;;;;;5007437;28;20446;-66
2022/02/23 00:12:56;;;;;;;1.40;1.30;;;7.50;99.90;;;;;;4996560;28;20446;-67
2022/02/23 00:15:21;;;;;;;1.70;1.20;;;7.50;99.90;;;;;;5001360;28;20458;-66
2022/02/23 00:17:47;;;;;;;1.87;0.90;;;7.50;99.90;;;;;;4995411;28;20208;-66
2022/02/23 00:20:13;;;;;;;2.57;1.10;;;7.50;99.90;;;;;;5009246;28;20183;-67
2022/02/23 00:22:39;;;;;;;1.10;1.00;;;7.50;99.90;;;;;;4995756;28;20435;-67
2022/02/23 00:25:06;;;;;;;2.00;0.87;;;7.50;99.90;;;;;;5001560;28;20595;-67
2022/02/23 00:27:32;;;;;;;1.67;0.90;;;7.50;99.90;;;;;;4995298;28;20512;-67
2022/02/23 00:29:58;;;;;;;1.10;0.80;;;7.40;99.90;;;;;;4995490;28;20434;-66
2022/02/23 00:32:24;;;;;;;1.47;1.00;;;7.40;99.90;;;;;;4995422;28;20214;-67
2022/02/23 00:34:50;;;;;;;2.60;0.93;;;7.30;99.90;;;;;;4999488;28;20297;-66
2022/02/23 00:37:16;;;;;;;2.00;1.20;;;7.30;99.90;;;;;;4995112;28;20914;-66
2022/02/23 00:39:41;;;;;;;1.13;0.77;;;7.30;99.90;;;;;;5006908;28;20477;-67
2022/02/23 00:42:07;;;;;;;1.43;1.20;;;7.30;99.90;;;;;;5010297;28;20477;-66
2022/02/23 00:44:33;;;;;;;1.77;0.97;;;7.30;99.90;;;;;;4998748;28;20878;-67
2022/02/23 00:47:00;;;;;;;1.50;0.83;;;7.30;99.90;;;;;;4994690;28;20219;-67
2022/02/23 00:49:26;;;;;;;2.20;1.10;;;7.40;99.90;;;;;;5004589;28;21023;-67
2022/02/23 00:51:52;;;;;;;1.60;1.33;;;7.40;99.90;;;;;;4995501;28;20442;-67
2022/02/23 00:54:18;;;;;;;2.40;1.10;;;7.30;99.90;;;;;;5000977;28;20466;-67
2022/02/23 00:56:45;;;;;;;3.00;1.13;;;7.30;99.90;;;;;;4994329;28;20519;-67
2022/02/23 00:59:11;;;;;;;2.20;1.00;;;7.20;99.90;;;;;;5000614;28;20642;-66
2022/02/23 01:01:38;;;;;;;1.07;0.90;;;7.20;99.90;;;;;;4994906;28;20450;-66
2022/02/23 01:04:07;;;;;;;1.47;1.00;;;7.20;99.90;;;;;;5001493;28;20930;-67
2022/02/23 01:06:33;;;;;;;2.10;1.00;;;7.20;99.90;;;;;;4994436;28;20465;-67
2022/02/23 01:08:59;;;;;;;1.20;0.90;;;7.20;99.90;;;;;;4994386;28;20442;-66
2022/02/23 01:11:25;;;;;;;1.53;1.10;;;7.20;99.90;;;;;;4994636;28;20943;-66
2022/02/23 01:13:51;;;;;;;1.23;1.10;;;7.30;99.90;;;;;;5001131;28;20679;-66
2022/02/23 01:16:17;;;;;;;4.53;1.37;;;7.30;99.90;;;;;;4994393;28;20270;-67
2022/02/23 01:18:43;;;;;;;1.97;1.30;;;7.30;99.90;;;;;;5008409;28;20210;-66
2022/02/23 01:21:09;;;;;;;2.03;1.17;;;7.20;99.90;;;;;;4996365;28;20461;-66
2022/02/23 01:23:34;;;;;;;1.20;1.10;;;7.20;99.90;;;;;;4994312;28;20623;-66
2022/02/23 01:26:00;;;;;;;1.57;1.30;;;7.20;99.90;;;;;;4992774;28;20210;-66
2022/02/23 01:28:26;;;;;;;1.70;1.53;;;7.20;99.90;;;;;;4994441;28;20214;-66
2022/02/23 01:30:52;;;;;;;2.20;1.53;;;7.10;99.90;;;;;;4995057;28;20226;-66
2022/02/23 01:33:17;;;;;;;1.63;1.50;;;7.10;99.90;;;;;;4994407;28;20186;-66
2022/02/23 01:35:43;;;;;;;3.17;1.67;;;7.10;99.90;;;;;;4994009;28;20187;-66
2022/02/23 01:38:09;;;;;;;1.73;1.43;;;7.10;99.90;;;;;;5001430;28;20226;-66
2022/02/23 01:40:34;;;;;;;3.93;1.53;;;7.10;99.90;;;;;;4994320;28;20610;-66
2022/02/23 01:43:00;;;;;;;2.33;1.50;;;7.00;99.90;;;;;;4994242;28;20532;-66
2022/02/23 01:45:25;;;;;;;6.10;1.20;;;7.10;99.90;;;;;;4993571;28;20768;-66
2022/02/23 01:47:51;;;;;;;4.50;1.60;;;7.00;99.90;;;;;;4999725;28;20194;-66
2022/02/23 01:50:17;;;;;;;2.20;1.10;;;7.00;99.90;;;;;;4993056;28;20180;-66
2022/02/23 01:52:43;;;;;;;3.37;1.57;;;7.00;99.90;;;;;;4996901;28;20172;-66
2022/02/23 01:55:10;;;;;;;2.70;1.20;;;7.10;99.90;;;;;;4993445;28;20674;-66
2022/02/23 01:57:36;;;;;;;3.23;1.40;;;7.10;99.90;;;;;;5006341;28;20441;-66
2022/02/23 02:00:04;;;;;;;1.93;1.50;;;7.10;99.90;;;;;;4997468;28;20442;-65
2022/02/23 02:02:30;;;;;;;2.00;1.07;;;7.10;99.90;;;;;;4994033;28;20861;-66
2022/02/23 02:04:55;;;;;;;6.90;1.10;;;7.00;99.90;;;;;;4993375;28;20467;-66
2022/02/23 02:07:21;;;;;;;4.83;1.00;;;6.70;99.90;;;;;;4994098;28;20204;-65
2022/02/23 02:09:46;;;;;;;6.07;0.97;;;6.10;99.90;;;;;;4993561;28;20186;-65
2022/02/23 02:12:12;;;;;;;1.97;0.70;;;5.90;99.90;;;;;;5002189;28;20181;-66
2022/02/23 02:14:37;;;;;;;1.83;0.93;;;5.70;99.90;;;;;;4995699;28;20693;-66
2022/02/23 02:17:03;;;;;;;4.23;1.83;;;5.50;99.90;;;;;;4993189;28;20180;-66
2022/02/23 02:19:30;;;;;;;2.60;1.40;;;5.50;99.90;;;;;;4998300;28;20171;-66
2022/02/23 02:21:59;;;;;;;3.90;2.17;;;5.40;99.90;;;;;;4998141;28;20273;-66
2022/02/23 02:24:27;;;;;;;4.60;2.00;;;5.40;99.90;;;;;;4993825;28;20454;-66
2022/02/23 02:26:54;;;;;;;3.70;1.33;;;5.30;99.90;;;;;;4992896;28;20968;-66
2022/02/23 02:29:20;;;;;;;8.07;1.53;;;5.30;99.90;;;;;;4996033;28;20906;-66
2022/02/23 02:31:47;;;;;;;5.23;1.90;;;5.30;99.90;;;;;;4995700;28;20790;-66
2022/02/23 02:34:14;;;;;;;8.63;1.77;;;5.30;99.90;;;;;;4992704;28;20451;-66
2022/02/23 02:36:40;;;;;;;5.40;1.77;;;5.30;99.90;;;;;;5007631;28;20513;-66
2022/02/23 02:39:07;;;;;;;5.37;1.57;;;5.30;99.90;;;;;;4992772;28;20537;-66
2022/02/23 02:41:34;;;;;;;8.83;1.60;;;5.20;99.90;;;;;;4999143;28;20206;-66
2022/02/23 02:43:59;;;;;;;2.93;1.60;;;5.30;99.90;;;;;;4992667;28;20484;-65
2022/02/23 02:46:25;;;;;;;10.80;1.60;;;5.30;99.90;;;;;;4992599;28;21025;-66
2022/02/23 02:48:50;;;;;;;4.07;1.23;;;5.30;99.90;;;;;;4991534;28;20168;-66
2022/02/23 02:51:16;;;;;;;6.10;1.40;;;5.40;99.90;;;;;;4992911;28;20559;-66
2022/02/23 02:53:41;;;;;;;2.70;1.27;;;5.40;99.90;;;;;;4992610;28;20227;-66
2022/02/23 02:56:07;;;;;;;3.30;1.30;;;5.40;99.90;;;;;;4992631;28;20206;-66
2022/02/23 02:58:32;;;;;;;6.33;2.00;;;5.40;99.90;;;;;;4992302;28;20180;-66
2022/02/23 03:00:58;;;;;;;2.83;1.47;;;5.40;99.90;;;;;;4992842;28;20206;-66
2022/02/23 03:03:23;;;;;;;5.00;1.90;;;5.50;99.90;;;;;;5023965;28;20214;-66
2022/02/23 03:05:49;;;;;;;5.07;1.73;;;5.50;99.90;;;;;;5003182;28;20298;-66
2022/02/23 03:08:15;;;;;;;4.20;1.60;;;5.50;99.90;;;;;;5020321;28;20641;-66
2022/02/23 03:10:43;;;;;;;7.53;1.80;;;5.50;99.90;;;;;;4992596;28;20195;-66
2022/02/23 03:13:10;;;;;;;3.73;1.47;;;5.50;99.90;;;;;;4992548;28;20550;-66
2022/02/23 03:15:36;;;;;;;2.37;1.40;;;5.50;99.90;;;;;;4992195;28;20508;-66
2022/02/23 03:18:02;;;;;;;5.47;1.63;;;5.50;99.90;;;;;;4998149;28;20960;-66
2022/02/23 03:20:28;;;;;;;5.23;1.93;;;5.50;99.90;;;;;;4999364;28;20460;-66
2022/02/23 03:22:53;;;;;;;5.00;1.63;;;5.40;99.90;;;;;;4992466;28;21017;-66
2022/02/23 03:25:19;;;;;;;3.83;1.53;;;5.40;99.90;;;;;;4991919;28;20192;-65
2022/02/23 03:27:46;;;;;;;5.87;1.70;;;5.40;99.90;;;;;;4993347;28;20199;-66
2022/02/23 03:30:12;;;;;;;5.60;2.33;;;5.40;99.90;;;;;;4995808;28;20192;-66
2022/02/23 03:32:38;;;;;;;9.50;2.10;;;5.30;99.90;;;;;;4993082;28;20842;-66
2022/02/23 03:35:04;;;;;;;3.63;1.30;;;5.30;99.90;;;;;;5004275;28;20503;-66
2022/02/23 03:37:30;;;;;;;7.00;1.47;;;5.30;99.90;;;;;;4992236;28;20262;-66
2022/02/23 03:39:56;;;;;;;6.50;1.87;;;5.20;99.90;;;;;;4997915;28;20598;-66
2022/02/23 03:42:21;;;;;;;6.63;2.17;;;5.20;99.90;;;;;;4991840;28;20205;-65
2022/02/23 03:44:47;;;;;;;3.43;1.87;;;5.10;99.90;;;;;;5004344;28;20512;-66
2022/02/23 03:47:13;;;;;;;4.30;2.10;;;5.10;99.90;;;;;;4991503;28;20199;-66
2022/02/23 03:49:38;;;;;;;6.07;2.37;;;5.00;99.90;;;;;;4998515;28;20199;-66
2022/02/23 03:52:04;;;;;;;5.10;1.60;;;5.00;99.90;;;;;;4992272;28;20164;-66
2022/02/23 03:54:30;;;;;;;7.03;1.93;;;4.90;99.90;;;;;;5001665;28;20274;-66
2022/02/23 03:56:55;;;;;;;8.67;2.20;;;4.90;99.90;;;;;;4991729;28;20182;-66
2022/02/23 03:59:21;;;;;;;5.40;1.70;;;4.90;99.90;;;;;;4996126;28;20545;-66
2022/02/23 04:01:47;;;;;;;8.97;2.37;;;4.90;99.90;;;;;;4993378;28;20238;-65
2022/02/23 04:04:15;;;;;;;2.70;1.93;;;4.90;99.90;;;;;;4996581;28;20207;-66
2022/02/23 04:06:40;;;;;;;4.63;2.33;;;4.90;99.90;;;;;;4991352;28;20191;-66
2022/02/23 04:09:08;;;;;;;10.57;3.17;;;4.80;99.90;;;;;;4990459;28;20542;-66
2022/02/23 04:11:34;;;;;;;9.27;2.60;;;4.90;99.90;;;;;;4991766;28;20175;-66
2022/02/23 04:14:00;;;;;;;14.60;3.20;;;4.80;99.90;;;;;;4994310;28;20485;-66
2022/02/23 04:16:26;;;;;;;9.33;2.83;;;4.80;99.90;;;;;;4994516;28;20723;-66
2022/02/23 04:18:52;;;;;;;11.03;2.93;;;4.80;99.90;;;;;;4991761;28;20443;-65
2022/02/23 04:21:18;;;;;;;7.27;2.77;;;4.80;99.90;;;;;;4991292;28;20190;-66
2022/02/23 04:23:45;;;;;;;10.87;2.90;;;4.80;99.90;;;;;;4979087;28;20989;-65
2022/02/23 04:26:16;;;;;;;4.10;2.53;;;4.90;99.90;;;;;;4991212;28;20509;-66
2022/02/23 04:28:41;;;;;;;7.10;3.10;;;5.00;99.90;;;;;;4991439;28;20458;-66
2022/02/23 04:31:07;;;;;;;8.37;3.43;;;5.00;99.90;;;;;;4993561;28;20488;-66
2022/02/23 04:33:32;;;;;;;9.10;2.80;;;5.10;99.90;;;;;;4995579;28;20544;-66
2022/02/23 04:35:58;;;;;;;5.80;2.90;;;5.20;99.90;;;;;;4994968;28;20673;-66
2022/02/23 04:38:23;;;;;;;5.03;3.10;;;5.20;99.90;;;;;;4997941;28;20202;-66
2022/02/23 04:40:49;;;;;;;5.20;4.30;;;5.20;99.90;;;;;;4994887;28;20215;-66
2022/02/23 04:43:15;;;;;;;7.90;2.80;;;5.20;99.90;;;;;;4995053;28;20725;-66
2022/02/23 04:45:42;;;;;;;7.57;2.90;;;5.30;99.90;;;;;;4994622;28;20595;-66
2022/02/23 04:48:08;;;;;;;5.33;2.60;;;5.30;99.90;;;;;;4994959;28;20822;-66
2022/02/23 04:50:34;;;;;;;7.97;2.90;;;5.40;99.90;;;;;;4994782;28;20864;-66
2022/02/23 04:52:59;;;;;;;9.90;3.30;;;5.40;99.90;;;;;;4994579;28;20469;-66
2022/02/23 04:55:25;;;;;;;9.47;3.40;;;5.40;99.90;;;;;;4994342;28;20217;-66
2022/02/23 04:57:50;;;;;;;6.83;3.33;;;5.40;99.90;;;;;;4997679;28;20246;-66
2022/02/23 05:00:16;;;;;;;4.97;2.70;;;5.40;99.90;;;;;;4994278;28;20188;-66
2022/02/23 05:02:42;;;;;;;9.80;2.70;;;5.30;99.90;;;;;;4994973;28;20176;-66
2022/02/23 05:05:08;;;;;;;10.77;3.10;;;5.30;99.90;;;;;;4993767;28;20473;-66
2022/02/23 05:07:34;;;;;;;4.93;2.47;;;5.10;99.90;;;;;;4995717;28;20591;-65
2022/02/23 05:10:00;;;;;;;12.53;2.90;;;5.00;99.90;;;;;;4994388;28;20799;-65
2022/02/23 05:12:26;;;;;;;6.87;3.13;;;4.90;99.90;;;;;;4994841;28;20438;-65
2022/02/23 05:14:52;;;;;;;8.20;2.63;;;4.90;99.90;;;;;;4993967;28;20465;-66
2022/02/23 05:17:18;;;;;;;7.93;2.50;;;4.80;99.90;;;;;;5001732;28;20712;-66
2022/02/23 05:19:44;;;;;;;8.00;2.80;;;4.80;99.90;;;;;;4993349;28;20443;-66
2022/02/23 05:22:09;;;;;;;5.07;3.10;;;4.70;99.90;;;;;;4997486;28;20223;-65
2022/02/23 05:24:35;;;;;;;6.07;3.60;;;4.70;99.90;;;;;;4993952;28;20324;-66
2022/02/23 05:27:01;;;;;;;14.23;3.80;;;4.70;99.90;;;;;;4993749;28;20218;-65
2022/02/23 05:29:27;;;;;;;5.10;3.37;;;4.60;99.90;;;;;;5009121;28;20218;-66
2022/02/23 05:31:53;;;;;;;6.63;2.87;;;4.50;99.90;;;;;;4993654;28;20435;-65
2022/02/23 05:34:19;;;;;;;9.70;3.83;;;4.50;99.90;;;;;;4993576;28;20942;-66
2022/02/23 05:36:46;;;;;;;7.93;3.40;;;4.50;99.90;;;;;;4996252;28;20435;-65
2022/02/23 05:39:12;;;;;;;5.53;3.37;;;4.40;99.90;;;;;;4988439;28;20434;-66
2022/02/23 05:41:38;;;;;;;8.20;3.57;;;4.40;99.90;;;;;;4993123;28;20842;-66
2022/02/23 05:44:04;;;;;;;5.70;2.67;;;4.40;99.90;;;;;;4993601;28;20462;-66
2022/02/23 05:46:30;;;;;;;5.73;2.90;;;4.40;99.90;;;;;;4993460;28;20210;-66
2022/02/23 05:48:56;;;;;;;10.87;3.80;;;4.30;99.90;;;;;;4993872;28;20435;-66
2022/02/23 05:51:36;;;;;;;7.93;3.20;;;4.30;99.90;;;;;;4993599;28;20664;-66
2022/02/23 05:54:03;;;;;;;7.93;3.80;;;4.20;99.90;;;;;;4993667;28;20450;-66
2022/02/23 05:56:30;;;;;;;11.63;4.07;;;4.10;99.90;;;;;;4993435;28;20489;-66
2022/02/23 05:58:57;;;;;;;15.50;5.00;;;4.10;99.90;;;;;;4993778;28;20524;-66
2022/02/23 06:01:23;;;;;;;5.33;3.53;;;4.20;99.90;;;;;;4992992;28;20438;-66
2022/02/23 06:03:48;;;;;;;8.77;3.50;;;4.20;99.90;;;;;;4993342;28;20455;-66
2022/02/23 06:06:14;;;;;;;7.70;3.03;;;4.20;99.90;;;;;;4993213;28;20199;-66
2022/02/23 06:08:40;;;;;;;5.30;3.03;;;4.20;99.90;;;;;;4993350;28;20227;-67
2022/02/23 06:11:07;;;;;;;4.93;3.13;;;4.10;99.90;;;;;;4993327;28;20710;-66
2022/02/23 06:13:33;;;;;;;10.37;3.90;;;4.00;99.90;;;;;;4993152;28;20278;-66
2022/02/23 06:15:58;;;;;;;8.00;3.77;;;4.00;99.90;;;;;;5024407;28;20542;-66
2022/02/23 06:18:24;;;;;;;6.47;3.70;;;4.00;99.90;;;;;;4992836;28;20205;-66
2022/02/23 06:20:50;;;;;;;7.60;3.20;;;3.90;99.90;;;;;;4992815;28;20222;-66
2022/02/23 06:23:16;;;;;;;5.57;3.87;;;3.90;99.90;;;;;;4993140;28;20199;-66
2022/02/23 06:25:41;;;;;;;6.63;3.53;;;4.00;99.90;;;;;;4992557;28;20481;-67
2022/02/23 06:28:07;;;;;;;9.17;4.33;;;4.00;99.90;;;;;;4992819;28;20515;-66
2022/02/23 06:30:32;;;;;;;9.33;3.57;;;4.00;99.90;;;;;;4998846;28;20167;-66
2022/02/23 06:32:58;;;;;;;8.50;4.10;;;3.90;99.90;;;;;;5000183;28;20179;-66
2022/02/23 06:35:24;;;;;;;7.07;3.60;;;3.90;99.90;;;;;;4993618;28;20191;-66
2022/02/23 06:37:50;;;;;;;5.13;3.20;;;4.00;99.90;;;;;;4992968;28;20179;-66
2022/02/23 06:40:16;;;;;;;5.20;2.90;;;4.00;99.90;;;;;;4993898;28;20168;-66
2022/02/23 06:42:42;;;;;;;4.10;2.83;;;4.00;99.90;;;;;;4992283;28;20446;-66
2022/02/23 06:45:08;;;;;;;5.30;3.63;;;4.10;99.90;;;;;;4992481;28;20469;-66
2022/02/23 06:47:34;;;;;;;5.07;3.60;;;4.10;99.90;;;;;;4998705;28;20719;-67
2022/02/23 06:50:00;;;;;;;8.40;4.77;;;4.10;99.90;;;;;;4992728;28;20431;-67
2022/02/23 06:52:30;;;;;;;8.00;4.30;;;4.10;99.90;;;;;;5002239;28;20192;-66
2022/02/23 06:54:56;;;;;;;6.73;4.07;;;4.10;99.90;;;;;;4999454;28;20454;-66
2022/02/23 06:57:23;;;;;;;7.30;3.87;;;4.00;99.90;;;;;;4992193;28;20797;-67
2022/02/23 06:59:48;;;;;;;8.70;5.07;;;4.10;99.90;;;;;;4992033;28;20184;-66
2022/02/23 07:02:14;;;;;;;7.40;4.20;;;4.10;99.90;;;;;;4992445;28;20426;-66
2022/02/23 07:04:41;;;;;;;8.23;5.50;;;4.30;99.90;;;;;;4994281;28;20613;-66
2022/02/23 07:07:07;;;;;;;6.60;4.37;;;4.40;99.90;;;;;;5004725;28;20274;-66
2022/02/23 07:09:33;;;;;;;8.93;4.20;;;4.50;99.90;;;;;;5004095;28;20492;-66
2022/02/23 07:12:02;;;;;;;8.67;4.70;;;4.60;99.90;;;;;;4999665;28;20922;-66
2022/02/23 07:14:27;;;;;;;11.50;5.10;;;4.90;99.90;;;;;;4996260;28;20203;-66
2022/02/23 07:16:53;;;;;;;5.83;3.90;;;5.20;99.90;;;;;;4996804;28;20955;-66
2022/02/23 07:19:20;;;;;;;10.10;4.60;;;5.50;99.90;;;;;;4998480;28;20183;-63
2022/02/23 07:21:46;;;;;;;7.87;4.83;;;5.80;99.90;;;;;;4992132;28;20179;-62
2022/02/23 07:24:12;;;;;;;8.47;4.93;;;6.00;99.90;;;;;;4991982;28;20916;-62
2022/02/23 07:26:38;;;;;;;9.50;5.10;;;6.10;99.90;;;;;;4994983;28;20466;-64
2022/02/23 07:29:03;;;;;;;4.83;3.33;;;6.20;99.90;;;;;;4990699;28;20179;-66
2022/02/23 07:31:29;;;;;;;6.30;5.47;;;6.40;99.90;;;;;;4992262;28;20168;-66
2022/02/23 07:33:55;;;;;;;8.33;3.93;;;6.60;99.90;;;;;;4999631;28;20220;-66
2022/02/23 07:36:20;;;;;;;6.50;5.07;;;6.70;99.90;;;;;;4997181;28;20583;-66
2022/02/23 07:38:47;;;;;;;8.70;4.27;;;6.90;99.90;;;;;;4991883;28;20967;-66
2022/02/23 07:41:19;;;;;;;6.87;4.60;;;7.10;99.90;;;;;;4991335;28;20183;-66
2022/02/23 07:43:45;;;;;;;8.63;3.73;;;7.40;99.90;;;;;;4985361;28;20458;-65
2022/02/23 07:46:11;;;;;;;7.27;4.87;;;7.50;99.90;;;;;;4986543;28;20461;-65
2022/02/23 07:48:38;;;;;;;6.87;3.30;;;7.70;99.90;;;;;;4986919;28;20443;-65
2022/02/23 07:51:04;;;;;;;10.07;3.70;;;7.90;99.90;;;;;;4998974;28;20175;-65
2022/02/23 07:53:30;;;;;;;4.73;3.57;;;8.00;99.90;;;;;;4985889;28;20469;-65
2022/02/23 07:55:56;;;;;;;7.33;3.40;;;8.40;99.90;;;;;;4993325;28;20430;-65
2022/02/23 07:58:22;;;;;;;5.20;3.20;;;8.70;99.90;;;;;;4996275;28;20434;-65
2022/02/23 08:00:47;;;;;;;6.93;3.47;;;8.80;99.90;;;;;;4994544;28;20230;-65
2022/02/23 08:03:14;;;;;;;4.27;3.33;;;9.20;99.90;;;;;;4992175;28;20246;-66
2022/02/23 08:05:40;;;;;;;4.70;3.20;;;9.50;99.90;;;;;;4992978;28;20801;-66
2022/02/23 08:08:06;;;;;;;6.67;3.03;;;9.80;99.90;;;;;;4994870;28;20199;-65
2022/02/23 08:10:32;;;;;;;4.90;2.80;;;10.20;99.90;;;;;;5001404;28;20465;-65
2022/02/23 08:12:58;;;;;;;4.83;3.07;;;10.60;99.90;;;;;;4996293;28;20823;-65
2022/02/23 08:20:54;;;;;;;5.87;2.87;;;11.20;99.90;;;;;;5005242;28;20496;-65
2022/02/23 08:23:20;;;;;;;6.20;2.67;;;11.20;99.90;;;;;;4999375;28;20442;-65
2022/02/23 08:25:47;;;;;;;6.53;2.83;;;11.40;99.90;;;;;;4994854;28;20198;-65
2022/02/23 08:28:13;;;;;;;4.90;1.93;;;11.20;99.90;;;;;;4988608;28;20179;-65
2022/02/23 08:30:39;;;;;;;5.80;2.43;;;11.30;99.90;;;;;;4994770;28;20517;-66
2022/02/23 08:33:05;;;;;;;8.80;3.63;;;11.50;99.90;;;;;;4994628;28;20522;-66
2022/02/23 08:35:31;;;;;;;23.23;11.40;;;11.60;99.90;;;;;;5004772;28;20198;-66
2022/02/23 08:37:57;;;;;;;27.53;11.37;;;11.30;99.90;;;;;;4995693;28;20984;-65
2022/02/23 08:40:23;;;;;;;50.63;24.73;;;11.30;99.90;;;;;;4994880;28;20538;-66
2022/02/23 08:42:48;;;;;;;48.97;24.00;;;11.60;99.90;;;;;;4994913;28;20249;-66
2022/02/23 08:45:14;;;;;;;47.37;24.13;;;12.20;99.90;;;;;;4994508;28;20466;-66
2022/02/23 08:47:39;;;;;;;28.50;13.70;;;12.50;99.90;;;;;;4994421;28;20204;-66
2022/02/23 08:50:06;;;;;;;11.60;6.77;;;13.30;99.90;;;;;;4995837;28;20214;-66
2022/02/23 08:52:32;;;;;;;7.40;4.10;;;13.40;99.90;;;;;;4995809;28;20203;-65
2022/02/23 08:54:57;;;;;;;5.77;2.50;;;13.20;99.90;;;;;;4994275;28;20907;-66
2022/02/23 08:57:23;;;;;;;5.50;2.27;;;12.90;99.90;;;;;;5001612;28;20641;-66
2022/02/23 08:59:48;;;;;;;13.97;2.70;;;13.20;99.90;;;;;;4996565;28;20195;-66
2022/02/23 09:02:14;;;;;;;5.97;2.30;;;14.00;99.90;;;;;;4994802;28;20283;-66
2022/02/23 09:04:39;;;;;;;5.20;2.00;;;14.30;99.90;;;;;;4993802;28;20196;-66
2022/02/23 09:07:05;;;;;;;5.03;2.20;;;15.00;99.90;;;;;;4998593;28;20258;-66
2022/02/23 09:09:31;;;;;;;5.03;1.93;;;15.70;99.90;;;;;;5001455;28;20747;-66
2022/02/23 09:11:57;;;;;;;6.37;2.97;;;16.30;99.90;;;;;;4994239;28;20573;-66
2022/02/23 09:14:22;;;;;;;4.47;2.30;;;16.30;99.00;;;;;;5001378;28;20253;-66
2022/02/23 09:16:48;;;;;;;5.67;2.50;;;16.20;99.20;;;;;;5002848;28;20468;-66
2022/02/23 09:19:14;;;;;;;5.67;1.87;;;16.30;98.10;;;;;;5008349;28;20179;-66
2022/02/23 09:21:39;;;;;;;2.87;2.20;;;16.00;98.60;;;;;;5014117;28;20441;-66
2022/02/23 09:24:06;;;;;;;3.73;2.10;;;16.50;98.30;;;;;;5008011;28;20676;-66
2022/02/23 09:26:33;;;;;;;3.70;2.00;;;16.60;98.30;;;;;;5007709;28;20664;-66
2022/02/23 09:28:59;;;;;;;3.13;2.23;;;17.50;97.70;;;;;;5001463;28;20439;-65
2022/02/23 09:31:24;;;;;;;4.33;2.03;;;17.20;96.70;;;;;;4996847;28;20501;-67
2022/02/23 09:33:51;;;;;;;6.40;2.20;;;17.90;95.50;;;;;;4995900;28;20203;-66
2022/02/23 09:36:17;;;;;;;5.03;2.90;;;18.70;93.80;;;;;;5025157;28;20192;-66
2022/02/23 09:38:44;;;;;;;3.53;2.10;;;18.20;93.10;;;;;;5010944;28;20447;-66
2022/02/23 09:41:10;;;;;;;4.10;2.40;;;17.70;92.80;;;;;;5000743;28;21017;-66
2022/02/23 09:43:36;;;;;;;3.60;1.90;;;19.10;91.60;;;;;;4993464;28;20586;-65
2022/02/23 09:46:05;;;;;;;2.73;1.40;;;19.50;85.30;;;;;;5004272;28;20502;-66
2022/02/23 09:48:32;;;;;;;4.70;2.00;;;20.20;84.30;;;;;;4994122;28;20525;-66
2022/02/23 09:51:00;;;;;;;5.60;1.63;;;21.10;80.00;;;;;;4993445;28;20442;-66
2022/02/23 09:53:25;;;;;;;6.20;2.30;;;22.10;75.60;;;;;;4995918;28;20442;-66
2022/02/23 09:55:56;;;;;;;5.00;2.40;;;22.40;71.50;;;;;;4998368;28;20439;-66
2022/02/23 09:58:25;;;;;;;3.40;2.20;;;23.20;66.30;;;;;;4993527;28;20190;-67
2022/02/23 10:00:54;;;;;;;7.00;4.60;;;21.70;64.40;;;;;;4995936;28;20821;-66
2022/02/23 10:03:24;;;;;;;3.77;2.40;;;20.00;68.40;;;;;;4994622;28;20461;-66
2022/02/23 10:05:50;;;;;;;3.90;2.00;;;20.10;69.80;;;;;;4992901;28;20947;-66
2022/02/23 10:08:16;;;;;;;4.07;1.70;;;22.10;65.50;;;;;;5001498;28;20446;-66
2022/02/23 10:10:48;;;;;;;7.47;2.50;;;23.30;62.10;;;;;;4993158;28;20430;-66
2022/02/23 10:13:17;;;;;;;4.43;2.10;;;23.00;60.00;;;;;;4993235;28;20227;-66
2022/02/23 10:15:46;;;;;;;3.73;2.07;;;21.00;64.70;;;;;;4992230;28;20501;-66
2022/02/23 10:18:15;;;;;;;2.80;1.97;;;19.80;66.10;;;;;;4995296;28;20442;-66
2022/02/23 10:20:42;;;;;;;6.80;2.60;;;19.90;67.60;;;;;;4994263;28;20438;-66
2022/02/23 10:23:19;;;;;;;2.20;1.57;;;21.00;65.80;;;;;;4998887;28;20443;-66
2022/02/23 10:25:54;;;;;;;3.53;1.77;;;23.20;60.20;;;;;;4993326;28;20437;-66
2022/02/23 10:28:26;;;;;;;3.93;1.93;;;23.40;59.40;;;;;;4993960;28;21086;-66
2022/02/23 10:31:19;;;;;;;7.33;1.90;;;22.20;58.40;;;;;;4992758;28;20449;-66
2022/02/23 10:33:45;;;;;;;3.53;2.00;;;20.70;59.90;;;;;;5001962;28;20458;-66
2022/02/23 10:36:15;;;;;;;3.73;1.93;;;19.50;63.50;;;;;;4992623;28;20446;-66
2022/02/23 10:38:47;;;;;;;7.37;2.10;;;19.90;64.50;;;;;;4995657;28;20565;-66
2022/02/23 10:41:27;;;;;;;3.20;1.90;;;19.70;66.40;;;;;;4992840;28;20446;-66
2022/02/23 10:43:53;;;;;;;5.40;1.67;;;20.80;64.90;;;;;;4997118;28;20966;-66
2022/02/23 10:46:21;;;;;;;4.97;2.57;;;23.00;58.50;;;;;;4996264;28;20473;-66
2022/02/23 10:48:53;;;;;;;4.63;2.10;;;24.40;57.40;;;;;;4992766;28;20218;-66
2022/02/23 10:51:32;;;;;;;5.00;2.90;;;26.50;53.50;;;;;;4999780;28;20454;-67
2022/02/23 10:54:09;;;;;;;3.97;2.00;;;28.50;48.60;;;;;;5003915;28;20821;-67
2022/02/23 10:56:37;;;;;;;3.60;1.90;;;29.10;46.50;;;;;;5005817;28;20517;-66
2022/02/23 10:59:19;;;;;;;3.50;2.10;;;29.50;45.10;;;;;;4996038;28;20438;-66
2022/02/23 11:01:47;;;;;;;7.00;1.90;;;29.80;42.80;;;;;;4997465;28;20525;-67
2022/02/23 11:04:13;;;;;;;3.80;2.23;;;29.20;41.90;;;;;;4993541;28;20846;-66
2022/02/23 11:06:40;;;;;;;4.27;1.97;;;25.10;44.20;;;;;;5000498;28;20548;-66
2022/02/23 11:09:07;;;;;;;3.47;2.00;;;22.40;48.50;;;;;;5002775;28;20971;-66
2022/02/23 11:11:33;;;;;;;3.90;2.00;;;23.90;48.60;;;;;;4991063;28;20438;-66
2022/02/23 11:14:00;;;;;;;4.87;2.20;;;25.80;46.30;;;;;;4990159;28;20446;-66
2022/02/23 11:16:27;;;;;;;2.73;1.63;;;26.50;45.10;;;;;;4991614;28;20434;-66
2022/02/23 11:18:58;;;;;;;3.67;1.97;;;27.00;44.60;;;;;;4991134;28;21082;-66
2022/02/23 11:21:27;;;;;;;2.80;2.47;;;26.50;43.80;;;;;;5003711;28;20438;-67
2022/02/23 11:23:57;;;;;;;3.13;1.90;;;23.60;47.30;;;;;;4991644;28;20495;-67
2022/02/23 11:26:24;;;;;;;4.17;2.00;;;23.00;48.00;;;;;;4991592;28;20538;-67
2022/02/23 11:29:00;;;;;;;2.13;1.67;;;22.90;48.40;;;;;;4992163;28;20433;-67
2022/02/23 11:31:26;;;;;;;4.00;2.17;;;24.80;47.00;;;;;;4991756;28;20462;-67
2022/02/23 11:34:03;;;;;;;4.93;2.20;;;26.60;44.80;;;;;;4991636;28;20532;-67
2022/02/23 11:36:34;;;;;;;7.90;4.37;;;27.80;43.50;;;;;;4990181;28;20442;-67
2022/02/23 11:39:04;;;;;;;5.90;2.53;;;28.90;50.40;;;;;;4991596;28;20823;-67
2022/02/23 11:41:34;;;;;;;6.40;2.77;;;28.40;50.30;;;;;;4995155;28;20803;-67
2022/02/23 11:44:08;;;;;;;4.43;3.20;;;29.50;50.10;;;;;;4996290;28;20485;-67
2022/02/23 11:46:59;;;;;;;5.90;2.83;;;26.80;49.80;;;;;;4994699;28;20467;-67
2022/02/23 11:49:26;;;;;;;3.57;2.40;;;24.50;45.20;;;;;;4986550;28;20798;-67
2022/02/23 11:52:12;;;;;;;8.53;3.23;;;21.50;50.50;;;;;;5004670;28;20462;-66
2022/02/23 11:54:58;;;;;;;4.90;3.20;;;18.10;54.50;;;;;;5005827;28;20450;-66
2022/02/23 11:57:58;;;;;;;5.63;3.10;;;16.80;57.70;;;;;;4995765;28;20438;-66
2022/02/23 12:00:29;;;;;;;4.07;2.37;;;16.50;59.40;;;;;;4993607;28;20851;-65
2022/02/23 12:03:03;;;;;;;7.93;3.03;;;16.50;61.50;;;;;;4996095;28;20446;-66
2022/02/23 12:05:39;;;;;;;5.80;2.50;;;19.10;58.40;;;;;;4985242;28;20463;-66
2022/02/23 12:08:06;;;;;;;6.27;2.30;;;23.40;58.00;;;;;;4996649;28;20458;-66
2022/02/23 12:10:33;;;;;;;5.83;2.50;;;26.00;54.60;;;;;;4999807;28;20442;-66
2022/02/23 12:12:59;;;;;;;3.70;2.30;;;25.70;53.40;;;;;;4998447;28;20441;-66
2022/02/23 12:15:40;;;;;;;3.70;2.23;;;25.80;54.40;;;;;;5001773;28;20454;-66
2022/02/23 12:18:16;;;;;;;7.10;2.47;;;26.80;52.90;;;;;;5001708;28;20448;-66
2022/02/23 12:20:46;;;;;;;3.80;2.47;;;25.40;53.60;;;;;;5000714;28;20434;-66
2022/02/23 12:23:20;;;;;;;2.70;2.03;;;22.90;56.00;;;;;;5009326;28;20899;-66
2022/02/23 12:25:49;;;;;;;3.57;1.90;;;23.60;56.10;;;;;;4995744;28;20439;-66
2022/02/23 12:28:32;;;;;;;4.33;1.60;;;22.90;56.30;;;;;;4995378;28;20442;-66
2022/02/23 12:31:01;;;;;;;2.27;2.07;;;23.20;55.60;;;;;;4995253;28;20478;-66
2022/02/23 12:33:27;;;;;;;5.37;2.30;;;22.20;57.10;;;;;;5001053;28;20796;-66
2022/02/23 12:35:54;;;;;;;3.87;2.77;;;24.90;57.80;;;;;;4994959;28;20430;-66
2022/02/23 12:38:30;;;;;;;4.73;2.57;;;27.70;43.70;;;;;;4995193;28;20435;-66
2022/02/23 12:40:57;;;;;;;7.20;2.53;;;27.50;42.70;;;;;;5006499;28;20448;-66
2022/02/23 12:43:23;;;;;;;6.20;2.30;;;27.80;42.10;;;;;;5000493;28;20462;-66
2022/02/23 12:45:51;;;;;;;5.00;2.20;;;28.10;41.90;;;;;;4994424;28;20435;-66
2022/02/23 12:48:17;;;;;;;4.03;2.23;;;29.10;40.20;;;;;;4997433;28;20799;-66
2022/02/23 12:50:43;;;;;;;5.30;2.37;;;29.60;39.70;;;;;;5003374;28;20449;-66
2022/02/23 12:53:09;;;;;;;4.07;2.50;;;29.30;39.50;;;;;;4999934;28;20209;-66
2022/02/23 12:55:35;;;;;;;4.80;2.20;;;29.70;39.80;;;;;;4995993;28;20485;-64
2022/02/23 12:58:00;;;;;;;5.70;3.27;;;32.00;37.80;;;;;;5005423;28;20179;-65